createdAt,value
2023-01-29T00:05:16.685Z,19.37
2023-01-29T00:10:28.413Z,16.20
2023-01-29T00:15:32.062Z,15.10
2023-01-29T00:20:35.746Z,18.87
2023-01-29T00:25:40.978Z,19.07
2023-01-29T00:30:44.585Z,17.57
2023-01-29T00:35:48.347Z,16.40
2023-01-29T00:41:11.028Z,18.60
2023-01-29T00:46:15.077Z,18.23
2023-01-29T00:51:18.812Z,18.30
2023-01-29T00:56:23.954Z,18.67
2023-01-29T01:01:41.441Z,18.53
2023-01-29T01:06:45.303Z,20.97
2023-01-29T01:11:51.292Z,16.37
2023-01-29T01:16:55.003Z,20.33
2023-01-29T01:21:58.702Z,22.10
2023-01-29T01:27:03.813Z,23.30
2023-01-29T01:32:07.849Z,20.63
2023-01-29T01:37:11.634Z,21.83
2023-01-29T01:42:16.892Z,20.70
2023-01-29T01:47:24.433Z,20.63
2023-01-29T01:52:28.388Z,23.80
2023-01-29T01:57:34.251Z,25.10
2023-01-29T02:02:57.155Z,24.60
2023-01-29T02:08:18.565Z,23.40
2023-01-29T02:13:24.620Z,19.87
2023-01-29T02:18:28.351Z,20.40
2023-01-29T02:23:55.681Z,19.63
2023-01-29T02:29:22.720Z,22.03
2023-01-29T02:34:55.405Z,22.23
2023-01-29T02:40:08.952Z,21.13
2023-01-29T02:45:17.250Z,22.07
2023-01-29T02:50:27.647Z,23.17
2023-01-29T02:55:37.493Z,20.90
2023-01-29T03:00:47.228Z,22.17
2023-01-29T03:05:58.713Z,21.93
2023-01-29T03:11:06.334Z,21.90
2023-01-29T03:16:19.943Z,24.07
2023-01-29T03:21:47.913Z,23.30
2023-01-29T03:27:10.973Z,21.57
2023-01-29T03:32:24.093Z,24.57
2023-01-29T03:37:35.366Z,24.33
2023-01-29T03:42:52.138Z,23.23
2023-01-29T03:48:07.911Z,24.93
2023-01-29T03:53:22.567Z,20.70
2023-01-29T03:58:36.653Z,19.70
2023-01-29T04:03:49.800Z,22.73
2023-01-29T04:09:00.123Z,26.07
2023-01-29T04:14:05.124Z,20.10
2023-01-29T04:19:10.391Z,22.07
2023-01-29T04:24:17.599Z,23.43
2023-01-29T04:29:38.227Z,25.43
2023-01-29T04:34:57.002Z,24.00
2023-01-29T04:40:12.426Z,24.40
2023-01-29T04:45:24.110Z,22.90
2023-01-29T04:50:36.080Z,20.80
2023-01-29T04:55:46.144Z,21.43
2023-01-29T05:00:54.141Z,21.47
2023-01-29T05:06:01.807Z,24.43
2023-01-29T05:11:06.937Z,24.57
2023-01-29T05:16:16.555Z,24.37
2023-01-29T05:21:23.580Z,21.47
2023-01-29T05:26:45.866Z,23.13
2023-01-29T05:31:49.480Z,21.87
2023-01-29T05:36:55.300Z,20.63
2023-01-29T05:41:58.908Z,18.07
2023-01-29T05:47:03.123Z,19.93
2023-01-29T05:52:08.340Z,20.33
2023-01-29T05:57:12.030Z,22.17
2023-01-29T06:02:15.654Z,24.07
2023-01-29T06:07:20.938Z,22.70
2023-01-29T06:12:24.600Z,21.17
2023-01-29T06:17:28.573Z,20.27
2023-01-29T06:22:35.061Z,22.10
2023-01-29T06:27:39.312Z,22.33
2023-01-29T06:32:43.219Z,20.83
2023-01-29T06:37:48.441Z,21.33
2023-01-29T06:42:52.080Z,20.53
2023-01-29T06:47:55.884Z,16.00
2023-01-29T06:53:02.246Z,17.00
2023-01-29T06:58:09.450Z,19.73
2023-01-29T07:03:13.188Z,18.70
2023-01-29T07:08:18.460Z,21.20
2023-01-29T07:13:22.323Z,23.40
2023-01-29T07:18:26.116Z,22.20
2023-01-29T07:23:31.397Z,23.77
2023-01-29T07:28:39.562Z,20.13
2023-01-29T07:33:45.359Z,18.77
2023-01-29T07:38:52.800Z,19.90
2023-01-29T07:43:56.572Z,20.40
2023-01-29T07:49:01.057Z,18.50
2023-01-29T07:54:06.688Z,17.97
2023-01-29T07:59:10.559Z,21.27
2023-01-29T08:04:14.806Z,19.47
2023-01-29T08:09:20.299Z,16.80
2023-01-29T08:14:24.742Z,18.73
2023-01-29T08:19:28.626Z,20.00
2023-01-29T08:24:47.682Z,17.33
2023-01-29T08:29:57.726Z,19.60
2023-01-29T08:35:01.343Z,17.83
2023-01-29T08:40:12.443Z,17.60
2023-01-29T08:45:16.513Z,15.60
2023-01-29T08:50:21.008Z,15.40
2023-01-29T08:55:26.315Z,16.87
2023-01-29T09:00:30.132Z,18.37
2023-01-29T09:05:34.338Z,15.47
2023-01-29T09:10:39.679Z,16.97
2023-01-29T09:15:43.477Z,19.33
2023-01-29T09:20:47.778Z,17.60
2023-01-29T09:25:53.150Z,15.33
2023-01-29T09:30:57.040Z,17.03
2023-01-29T09:36:00.986Z,14.47
2023-01-29T09:41:17.362Z,18.13
2023-01-29T09:46:25.326Z,16.13
2023-01-29T09:51:36.497Z,16.47
2023-01-29T09:56:43.697Z,16.23
2023-01-29T10:01:56.675Z,15.40
2023-01-29T10:07:16.435Z,14.93
2023-01-29T10:12:34.964Z,16.70
2023-01-29T10:17:56.888Z,13.80
2023-01-29T10:23:17.032Z,16.43
2023-01-29T10:28:25.823Z,18.80
2023-01-29T10:33:49.323Z,15.77
2023-01-29T10:39:08.509Z,16.03
2023-01-29T10:44:39.726Z,16.90
2023-01-29T10:50:01.801Z,17.90
2023-01-29T10:55:22.583Z,18.17
2023-01-29T11:00:32.944Z,19.00
2023-01-29T11:05:43.823Z,16.20
2023-01-29T11:10:55.994Z,17.20
2023-01-29T11:16:01.258Z,16.73
2023-01-29T11:21:07.045Z,13.63
2023-01-29T11:26:36.683Z,16.47
2023-01-29T11:31:42.146Z,14.50
2023-01-29T11:36:46.204Z,13.80
2023-01-29T11:41:54.255Z,12.00
2023-01-29T11:47:12.285Z,12.03
2023-01-29T11:52:23.830Z,11.90
2023-01-29T11:57:33.880Z,15.60
2023-01-29T12:02:43.913Z,12.63
2023-01-29T12:07:50.746Z,12.43
2023-01-29T12:13:06.399Z,11.07
2023-01-29T12:18:21.112Z,12.50
2023-01-29T12:23:34.556Z,11.67
2023-01-29T12:28:52.731Z,11.17
2023-01-29T12:34:06.343Z,13.77
2023-01-29T12:39:12.793Z,11.60
2023-01-29T12:44:21.446Z,11.97
2023-01-29T12:49:30.192Z,13.37
2023-01-29T12:54:40.007Z,11.90
2023-01-29T12:59:48.970Z,12.13
2023-01-29T13:05:00.907Z,12.83
2023-01-29T13:10:09.928Z,14.13
2023-01-29T13:15:24.088Z,14.00
2023-01-29T13:20:33.680Z,13.73
2023-01-29T13:25:37.540Z,14.40
2023-01-29T13:30:41.667Z,15.17
2023-01-29T13:35:47.888Z,16.20
2023-01-29T13:40:52.462Z,13.63
2023-01-29T13:45:56.829Z,16.30
2023-01-29T13:51:06.113Z,16.80
2023-01-29T13:56:43.485Z,16.43
2023-01-29T14:02:05.423Z,18.93
2023-01-29T14:07:51.436Z,18.57
2023-01-29T14:12:56.641Z,19.93
2023-01-29T14:18:16.107Z,20.50
2023-01-29T14:23:35.873Z,18.50
2023-01-29T14:28:40.220Z,21.53
2023-01-29T14:33:44.801Z,22.23
2023-01-29T14:38:52.748Z,21.93
2023-01-29T14:44:36.398Z,19.33
2023-01-29T14:49:54.703Z,20.37
2023-01-29T14:55:04.569Z,22.57
2023-01-29T15:00:20.342Z,24.90
2023-01-29T15:05:28.995Z,24.73
2023-01-29T15:10:41.598Z,23.67
2023-01-29T15:15:51.566Z,24.93
2023-01-29T15:21:05.553Z,25.00
2023-01-29T15:26:16.315Z,21.60
2023-01-29T15:31:20.310Z,21.10
2023-01-29T15:36:26.850Z,23.03
2023-01-29T15:41:32.304Z,21.77
2023-01-29T15:46:40.552Z,25.87
2023-01-29T15:51:45.129Z,22.67
2023-01-29T15:56:53.303Z,20.03
2023-01-29T16:01:57.808Z,24.73
2023-01-29T16:07:03.886Z,22.07
2023-01-29T16:12:13.992Z,23.80
2023-01-29T16:17:26.123Z,18.33
2023-01-29T16:22:34.335Z,20.63
2023-01-29T16:27:43.513Z,20.80
2023-01-29T16:32:49.063Z,17.97
2023-01-29T16:37:53.924Z,19.10
2023-01-29T16:43:31.337Z,20.70
2023-01-29T16:48:38.207Z,19.00
2023-01-29T16:53:44.824Z,16.03
2023-01-29T16:58:56.294Z,15.77
2023-01-29T17:04:08.421Z,19.57
2023-01-29T17:09:25.069Z,21.50
2023-01-29T17:14:32.515Z,19.47
2023-01-29T17:19:37.678Z,16.43
2023-01-29T17:24:41.844Z,19.40
2023-01-29T17:29:47.592Z,18.37
2023-01-29T17:34:52.454Z,16.17
2023-01-29T17:40:01.926Z,16.90
2023-01-29T17:45:12.670Z,12.97
2023-01-29T17:50:24.397Z,17.17
2023-01-29T17:55:29.164Z,14.37
2023-01-29T18:00:35.620Z,15.90
2023-01-29T18:05:42.714Z,18.20
2023-01-29T18:10:48.285Z,15.43
2023-01-29T18:15:57.190Z,14.57
2023-01-29T18:21:01.435Z,16.07
2023-01-29T18:26:07.421Z,15.63
2023-01-29T18:31:15.652Z,14.43
2023-01-29T18:36:19.754Z,15.50
2023-01-29T18:41:23.654Z,17.80
2023-01-29T18:46:32.019Z,15.67
2023-01-29T18:51:36.239Z,15.70
2023-01-29T18:57:06.234Z,14.87
2023-01-29T19:02:08.691Z,16.70
2023-01-29T19:07:12.928Z,15.47
2023-01-29T19:12:18.485Z,16.23
2023-01-29T19:17:26.447Z,15.23
2023-01-29T19:22:30.689Z,13.93
2023-01-29T19:27:37.094Z,16.97
2023-01-29T19:32:46.025Z,15.30
2023-01-29T19:37:49.855Z,15.83
2023-01-29T19:42:56.325Z,14.23
2023-01-29T19:48:01.790Z,14.60
2023-01-29T19:53:05.726Z,12.57
2023-01-29T19:58:12.676Z,15.60
2023-01-29T20:03:17.991Z,13.53
2023-01-29T20:08:24.071Z,14.37
2023-01-29T20:13:28.081Z,16.50
2023-01-29T20:18:34.188Z,18.20
2023-01-29T20:23:39.071Z,16.63
2023-01-29T20:28:43.479Z,14.07
2023-01-29T20:33:49.293Z,12.27
2023-01-29T20:38:53.142Z,13.10
2023-01-29T20:43:59.958Z,12.13
2023-01-29T20:49:07.119Z,16.50
2023-01-29T20:54:12.771Z,14.33
2023-01-29T20:59:17.096Z,14.70
2023-01-29T21:04:23.419Z,14.87
2023-01-29T21:09:27.195Z,13.97
2023-01-29T21:14:31.059Z,14.10
2023-01-29T21:19:36.621Z,12.53
2023-01-29T21:24:40.464Z,10.60
2023-01-29T21:29:44.325Z,9.87
2023-01-29T21:34:52.286Z,10.40
2023-01-29T21:39:56.290Z,10.67
2023-01-29T21:44:59.919Z,14.93
2023-01-29T21:50:05.572Z,11.40
2023-01-29T21:55:09.920Z,11.43
2023-01-29T22:00:14.695Z,11.23
2023-01-29T22:05:20.557Z,12.33
2023-01-29T22:10:24.394Z,11.50
2023-01-29T22:15:28.416Z,11.23
2023-01-29T22:20:33.588Z,16.33
2023-01-29T22:25:37.699Z,15.67
2023-01-29T22:30:41.520Z,16.33
2023-01-29T22:35:46.732Z,13.80
2023-01-29T22:40:51.576Z,12.57
2023-01-29T22:45:56.681Z,10.10
2023-01-29T22:51:10.907Z,9.27
2023-01-29T22:56:14.790Z,9.03
2023-01-29T23:01:19.652Z,12.13
2023-01-29T23:06:25.147Z,17.20
2023-01-29T23:11:28.834Z,14.67
2023-01-29T23:16:32.676Z,9.83
2023-01-29T23:21:37.993Z,11.47
2023-01-29T23:26:59.136Z,9.20
2023-01-29T23:32:03.874Z,8.30
2023-01-29T23:37:09.536Z,11.87
2023-01-29T23:42:13.341Z,7.90
2023-01-29T23:47:17.057Z,8.83
2023-01-29T23:52:22.331Z,12.10
2023-01-29T23:57:26.134Z,11.03
